Time;durP1;ratioP1;P1;durP2;ratioP2;P2;SDS_P1;SDS_P2;PMS_P1;PMS_P2;Temp;Humidity;BMP_temperature;BMP_pressure;BME280_temperature;BME280_humidity;BME280_pressure;Samples;Min_cycle;Max_cycle;Signal;HPM_P1;HPM_P2
2023/02/15 00:01:32;;;;;;;147.93;33.28;;;3.00;99.90;;;;;;4990879;28;20076;-72
2023/02/15 00:03:57;;;;;;;197.35;34.38;;;3.00;99.90;;;;;;5002638;28;20117;-72
2023/02/15 00:06:23;;;;;;;164.00;34.00;;;3.00;99.90;;;;;;4989094;28;20069;-72
2023/02/15 00:08:49;;;;;;;207.75;35.17;;;3.00;99.90;;;;;;4992013;28;20038;-71
2023/02/15 00:11:16;;;;;;;183.23;34.65;;;3.00;99.90;;;;;;4989362;28;20046;-72
2023/02/15 00:13:42;;;;;;;189.93;33.60;;;3.00;99.90;;;;;;4989949;28;20042;-72
2023/02/15 00:16:12;;;;;;;252.38;37.65;;;3.00;99.90;;;;;;4986166;28;20023;-71
2023/02/15 00:18:39;;;;;;;169.95;33.70;;;3.00;99.90;;;;;;4989717;28;20116;-71
2023/02/15 00:21:07;;;;;;;135.15;32.78;;;2.90;99.90;;;;;;4987152;28;20387;-72
2023/02/15 00:23:33;;;;;;;153.70;32.72;;;3.00;99.90;;;;;;4987832;28;20066;-72
2023/02/15 00:26:09;;;;;;;142.35;33.97;;;3.00;99.90;;;;;;4987042;28;20043;-71
2023/02/15 00:28:35;;;;;;;221.13;34.45;;;3.00;99.90;;;;;;4988480;28;20104;-71
2023/02/15 00:31:05;;;;;;;222.82;36.17;;;3.00;99.90;;;;;;4986845;28;20050;-72
2023/02/15 00:33:30;;;;;;;152.73;33.67;;;3.00;99.90;;;;;;4989308;28;20109;-72
2023/02/15 00:35:57;;;;;;;165.20;33.35;;;2.90;99.90;;;;;;4984919;28;20467;-72
2023/02/15 00:38:23;;;;;;;131.95;31.75;;;2.90;99.90;;;;;;4988106;28;20092;-72
2023/02/15 00:40:55;;;;;;;155.27;33.03;;;2.90;99.90;;;;;;4990913;28;20034;-73
2023/02/15 00:43:21;;;;;;;212.35;34.55;;;2.80;99.90;;;;;;4990875;28;20644;-73
2023/02/15 00:45:47;;;;;;;144.13;32.45;;;2.80;99.90;;;;;;4994549;28;20088;-72
2023/02/15 00:48:13;;;;;;;162.30;32.88;;;2.80;99.90;;;;;;4991343;28;20042;-71
2023/02/15 00:50:38;;;;;;;148.90;31.52;;;2.80;99.90;;;;;;4990982;28;20519;-73
2023/02/15 00:53:04;;;;;;;152.30;31.75;;;2.70;99.90;;;;;;4992227;28;20653;-72
2023/02/15 00:55:30;;;;;;;130.57;33.47;;;2.80;99.90;;;;;;4994619;28;20035;-72
2023/02/15 00:57:55;;;;;;;158.73;33.30;;;2.70;99.90;;;;;;4988198;28;20027;-71
2023/02/15 01:00:21;;;;;;;157.25;31.48;;;2.70;99.90;;;;;;4992473;28;20177;-71
2023/02/15 01:02:46;;;;;;;152.65;31.95;;;2.60;99.90;;;;;;4998780;28;20037;-72
2023/02/15 01:05:12;;;;;;;154.82;31.83;;;2.70;99.90;;;;;;4993879;28;20031;-73
2023/02/15 01:07:38;;;;;;;191.43;33.35;;;2.60;99.90;;;;;;4993334;28;20141;-72
2023/02/15 01:10:07;;;;;;;216.73;34.60;;;2.60;99.90;;;;;;5002546;28;20467;-72
2023/02/15 01:12:33;;;;;;;133.38;32.13;;;2.60;99.90;;;;;;4991008;28;20086;-72
2023/02/15 01:14:59;;;;;;;213.52;30.83;;;2.60;99.90;;;;;;4988042;28;20387;-72
2023/02/15 01:17:24;;;;;;;225.95;34.45;;;2.60;99.90;;;;;;4993278;28;20041;-72
2023/02/15 01:19:51;;;;;;;118.22;29.45;;;2.50;99.90;;;;;;4995240;28;20109;-73
2023/02/15 01:22:17;;;;;;;158.38;31.35;;;2.50;99.90;;;;;;4986587;28;20407;-73
2023/02/15 01:24:42;;;;;;;157.23;30.92;;;2.50;99.90;;;;;;4993500;28;20035;-73
2023/02/15 01:27:08;;;;;;;183.05;30.77;;;2.50;99.90;;;;;;4981924;28;20046;-72
2023/02/15 01:29:33;;;;;;;208.15;32.53;;;2.50;99.90;;;;;;4992227;28;20490;-73
2023/02/15 01:31:59;;;;;;;172.77;31.77;;;2.50;99.90;;;;;;4983990;28;20088;-72
2023/02/15 01:34:24;;;;;;;154.48;29.63;;;2.40;99.90;;;;;;4994061;28;20112;-72
2023/02/15 01:36:50;;;;;;;148.57;29.00;;;2.40;99.90;;;;;;4994686;28;20122;-72
2023/02/15 01:39:15;;;;;;;126.00;28.52;;;2.40;99.90;;;;;;4987800;28;20027;-72
2023/02/15 01:41:40;;;;;;;115.93;29.50;;;2.40;99.90;;;;;;4998098;28;20224;-72
2023/02/15 01:44:44;;;;;;;246.60;31.90;;;2.40;99.90;;;;;;4991525;28;20117;-72
2023/02/15 01:47:38;;;;;;;127.55;29.52;;;2.30;99.90;;;;;;4992367;28;20035;-72
2023/02/15 01:50:25;;;;;;;171.63;27.70;;;2.30;99.90;;;;;;5004132;28;20124;-72
2023/02/15 01:53:12;;;;;;;114.95;27.83;;;2.30;99.90;;;;;;4992850;28;20053;-74
2023/02/15 01:55:43;;;;;;;203.38;30.85;;;2.30;99.90;;;;;;4999508;28;20109;-73
2023/02/15 01:58:09;;;;;;;159.10;28.63;;;2.20;99.90;;;;;;4984551;28;20057;-72
2023/02/15 02:00:35;;;;;;;83.65;26.67;;;2.20;99.90;;;;;;4987316;28;20466;-71
2023/02/15 02:03:02;;;;;;;96.25;27.20;;;2.20;99.90;;;;;;4992578;28;20030;-71
2023/02/15 02:05:28;;;;;;;158.57;28.88;;;2.20;99.90;;;;;;4993150;28;20042;-71
2023/02/15 02:07:57;;;;;;;121.65;27.55;;;2.20;99.90;;;;;;4995258;28;20451;-71
2023/02/15 02:10:23;;;;;;;195.48;29.88;;;2.10;99.90;;;;;;4993518;28;20486;-72
2023/02/15 02:12:55;;;;;;;190.27;29.08;;;2.10;99.90;;;;;;4989014;28;20030;-72
2023/02/15 02:15:29;;;;;;;96.18;25.92;;;2.10;99.90;;;;;;4989769;28;20030;-72
2023/02/15 02:18:21;;;;;;;110.15;27.88;;;2.10;99.90;;;;;;4984572;28;20035;-72
2023/02/15 02:21:01;;;;;;;129.13;28.15;;;2.10;99.90;;;;;;4992566;28;20089;-72
2023/02/15 02:23:31;;;;;;;150.27;29.60;;;2.10;99.90;;;;;;4989527;28;20101;-72
2023/02/15 02:26:00;;;;;;;100.82;26.88;;;2.00;99.90;;;;;;4991391;28;20034;-71
2023/02/15 02:28:37;;;;;;;96.35;26.98;;;1.90;99.90;;;;;;4985073;28;20537;-71
2023/02/15 02:31:30;;;;;;;106.85;26.55;;;1.90;99.90;;;;;;4990974;28;20034;-72
2023/02/15 02:34:12;;;;;;;99.03;24.63;;;1.90;99.90;;;;;;4991002;28;20038;-71
2023/02/15 02:37:13;;;;;;;146.82;26.63;;;1.80;99.90;;;;;;4987753;28;20026;-71
2023/02/15 02:40:03;;;;;;;161.77;26.33;;;1.70;99.90;;;;;;4979857;28;20050;-71
2023/02/15 02:42:39;;;;;;;103.85;26.50;;;1.70;99.90;;;;;;4988703;28;20113;-71
2023/02/15 02:45:17;;;;;;;110.13;26.17;;;1.70;99.90;;;;;;4990863;28;20061;-71
2023/02/15 02:47:54;;;;;;;92.38;25.40;;;1.70;99.90;;;;;;4985201;28;20022;-72
2023/02/15 02:50:26;;;;;;;141.57;24.23;;;1.60;99.90;;;;;;4992258;28;20113;-71
2023/02/15 02:52:54;;;;;;;120.88;26.10;;;1.60;99.90;;;;;;4986726;28;20446;-72
2023/02/15 02:55:30;;;;;;;76.85;24.98;;;1.60;99.90;;;;;;4992183;28;20039;-72
2023/02/15 02:58:09;;;;;;;81.50;24.73;;;1.60;99.90;;;;;;4985342;28;20113;-72
2023/02/15 03:00:41;;;;;;;113.50;24.67;;;1.50;99.90;;;;;;4989025;28;20034;-72
2023/02/15 03:03:23;;;;;;;127.95;24.85;;;1.40;99.90;;;;;;4991684;28;20286;-71
2023/02/15 03:05:53;;;;;;;76.32;23.27;;;1.40;99.90;;;;;;4990077;28;20034;-71
2023/02/15 03:08:24;;;;;;;80.30;25.70;;;1.40;99.90;;;;;;4984538;28;20057;-72
2023/02/15 03:10:52;;;;;;;;;;;1.30;99.90;;;;;;4990327;28;20034;-72
2023/02/15 03:13:18;;;;;;;111.57;22.52;;;1.40;99.90;;;;;;4985887;28;20023;-72
2023/02/15 03:18:41;;;;;;;169.93;26.08;;;1.40;99.90;;;;;;4991263;28;20045;-72
2023/02/15 03:21:09;;;;;;;149.70;25.60;;;1.30;99.90;;;;;;4991910;28;20103;-71
2023/02/15 03:23:41;;;;;;;108.53;25.52;;;1.30;99.90;;;;;;5102656;27;20765;-71
2023/02/15 03:26:08;;;;;;;181.07;27.08;;;1.30;99.90;;;;;;5096590;28;20043;-71
2023/02/15 03:28:40;;;;;;;66.28;24.05;;;1.30;99.90;;;;;;5084372;28;20089;-71
2023/02/15 03:31:08;;;;;;;122.32;26.08;;;1.30;99.90;;;;;;5087467;28;20028;-70
2023/02/15 03:33:38;;;;;;;115.45;24.60;;;1.20;99.90;;;;;;5085590;28;20032;-70
2023/02/15 03:36:30;;;;;;;182.70;25.65;;;1.20;99.90;;;;;;5078417;28;20033;-71
2023/02/15 03:39:03;;;;;;;133.60;23.67;;;1.20;99.90;;;;;;5084263;28;20403;-71
2023/02/15 03:41:33;;;;;;;116.25;24.67;;;1.10;99.90;;;;;;5086333;28;20036;-71
2023/02/15 03:44:06;;;;;;;83.25;24.65;;;1.10;99.90;;;;;;5084203;28;20126;-70
2023/02/15 03:46:48;;;;;;;133.98;24.25;;;1.10;99.90;;;;;;5082684;28;20391;-71
2023/02/15 03:49:22;;;;;;;104.78;24.27;;;1.10;99.90;;;;;;5079466;28;20480;-70
2023/02/15 03:51:51;;;;;;;80.75;23.40;;;1.00;99.90;;;;;;5086101;28;20040;-71
2023/02/15 04:02:57;;;;;;;118.55;24.70;;;1.00;99.90;;;;;;5083754;28;20583;-70
2023/02/15 04:05:23;;;;;;;121.78;23.05;;;0.90;99.90;;;;;;5081732;28;20028;-71
2023/02/15 04:07:48;;;;;;;88.30;22.38;;;0.90;99.90;;;;;;5077293;28;20035;-73
2023/02/15 04:12:58;;;;;;;85.13;22.60;;;0.90;99.90;;;;;;5083293;28;20487;-73
2023/02/15 04:18:07;;;;;;;76.63;22.65;;;0.90;99.90;;;;;;5084780;28;20507;-73
2023/02/15 04:26:05;;;;;;;120.07;23.67;;;0.80;99.90;;;;;;5075919;28;20487;-74
2023/02/15 04:28:31;;;;;;;104.63;22.42;;;0.70;99.90;;;;;;5084693;28;20122;-73
2023/02/15 04:30:56;;;;;;;88.13;23.00;;;0.70;99.90;;;;;;5082972;28;20119;-73
2023/02/15 04:33:22;;;;;;;150.02;24.48;;;0.60;99.90;;;;;;5072097;28;20035;-73
2023/02/15 04:35:47;;;;;;;132.35;22.80;;;0.60;99.90;;;;;;5067395;28;20024;-73
2023/02/15 04:38:13;;;;;;;69.70;22.10;;;0.60;99.90;;;;;;5066940;28;20035;-73
2023/02/15 04:40:38;;;;;;;141.80;25.08;;;0.60;99.90;;;;;;5071350;28;20481;-73
2023/02/15 04:43:03;;;;;;;89.22;21.42;;;0.50;99.90;;;;;;5070102;28;20457;-74
2023/02/15 04:45:29;;;;;;;113.75;22.58;;;0.50;99.90;;;;;;5068312;28;20028;-73
2023/02/15 04:47:54;;;;;;;164.68;24.25;;;0.40;99.90;;;;;;5067244;28;20040;-73
2023/02/15 04:50:20;;;;;;;112.18;22.50;;;0.40;99.90;;;;;;5068579;28;20020;-73
2023/02/15 04:52:45;;;;;;;130.18;22.75;;;0.40;99.90;;;;;;5070817;28;20043;-73
2023/02/15 04:55:11;;;;;;;107.65;20.92;;;0.40;99.90;;;;;;5070167;28;20126;-73
2023/02/15 04:57:36;;;;;;;91.25;21.40;;;0.30;99.90;;;;;;5064937;28;20374;-74
2023/02/15 05:00:02;;;;;;;111.97;21.40;;;0.30;99.90;;;;;;5070999;28;20119;-73
2023/02/15 05:02:28;;;;;;;118.22;20.63;;;0.30;99.90;;;;;;5069847;28;20413;-73
2023/02/15 05:04:53;;;;;;;121.80;21.20;;;0.30;99.90;;;;;;5073587;28;20035;-73
2023/02/15 05:07:20;;;;;;;96.45;21.23;;;0.20;99.90;;;;;;5070300;28;20060;-73
2023/02/15 05:09:45;;;;;;;102.65;20.45;;;0.10;99.90;;;;;;5064669;28;20025;-74
2023/02/15 05:12:11;;;;;;;101.78;21.02;;;0.10;99.90;;;;;;5070482;28;20496;-73
2023/02/15 05:14:36;;;;;;;81.70;20.98;;;0.10;99.90;;;;;;5065888;28;20032;-73
2023/02/15 05:17:05;;;;;;;86.85;19.65;;;0.00;99.90;;;;;;5069846;28;20041;-73
2023/02/15 05:19:30;;;;;;;75.40;19.00;;;0.00;99.90;;;;;;5069312;28;20076;-73
2023/02/15 05:21:56;;;;;;;65.13;18.08;;;0.00;99.90;;;;;;5065718;28;20076;-73
2023/02/15 05:29:50;;;;;;;62.75;19.20;;;0.00;99.90;;;;;;5068433;28;20036;-69
2023/02/15 05:32:16;;;;;;;120.40;21.15;;;0.00;99.90;;;;;;5064913;28;20037;-66
2023/02/15 05:34:41;;;;;;;117.82;20.70;;;0.00;99.90;;;;;;5070794;28;20503;-67
2023/02/15 05:37:07;;;;;;;68.22;20.55;;;0.00;99.90;;;;;;5067990;28;20040;-67
2023/02/15 05:39:33;;;;;;;49.10;18.38;;;-3276.70;99.90;;;;;;5065357;28;20075;-67
2023/02/15 05:42:02;;;;;;;83.18;19.73;;;0.00;99.90;;;;;;5059734;28;20072;-66
2023/02/15 05:44:27;;;;;;;113.45;20.65;;;0.00;99.90;;;;;;5055769;28;20480;-67
2023/02/15 05:46:53;;;;;;;56.33;20.08;;;0.00;99.90;;;;;;5062488;28;20044;-66
2023/02/15 05:49:18;;;;;;;101.60;20.67;;;-3276.70;99.90;;;;;;5060402;28;20389;-67
2023/02/15 05:51:43;;;;;;;93.85;19.60;;;-3276.70;99.90;;;;;;5066705;28;20037;-67
2023/02/15 05:54:09;;;;;;;84.10;20.80;;;-3276.70;99.90;;;;;;5057062;28;20025;-67
2023/02/15 05:56:34;;;;;;;76.38;20.00;;;-3276.70;99.90;;;;;;5063947;28;20060;-67
2023/02/15 05:59:00;;;;;;;69.00;19.85;;;-3276.70;99.90;;;;;;5067031;28;20086;-66
2023/02/15 06:01:25;;;;;;;67.82;21.45;;;-3276.70;99.90;;;;;;5063960;28;20036;-67
2023/02/15 06:03:52;;;;;;;66.57;21.10;;;-3276.70;99.90;;;;;;5068405;28;20051;-67
2023/02/15 06:06:17;;;;;;;60.13;18.38;;;-3276.60;99.90;;;;;;5072124;28;20024;-67
2023/02/15 06:08:43;;;;;;;77.68;19.70;;;-3276.60;99.90;;;;;;5068267;28;20043;-68
2023/02/15 06:11:09;;;;;;;72.78;20.00;;;-3276.60;99.90;;;;;;5063663;28;20044;-67
2023/02/15 06:13:35;;;;;;;67.22;20.35;;;-3276.60;99.90;;;;;;5066896;28;20150;-67
2023/02/15 06:16:00;;;;;;;78.72;20.58;;;-3276.60;99.90;;;;;;5066019;28;20041;-68
2023/02/15 06:18:26;;;;;;;60.13;19.98;;;-3276.60;99.90;;;;;;5064985;28;20385;-67
2023/02/15 06:20:51;;;;;;;49.63;18.13;;;-3276.50;99.90;;;;;;5069225;28;20036;-67
2023/02/15 06:23:17;;;;;;;58.28;20.20;;;-3276.50;99.90;;;;;;5064472;28;20045;-67
2023/02/15 06:25:45;;;;;;;42.00;18.98;;;-3276.60;99.90;;;;;;5063570;28;20060;-68
2023/02/15 06:28:10;;;;;;;66.80;19.85;;;-3276.60;99.90;;;;;;5066867;28;20453;-65
2023/02/15 06:30:36;;;;;;;48.60;19.77;;;-3276.60;99.90;;;;;;5064293;28;20044;-66
2023/02/15 06:33:01;;;;;;;61.45;19.83;;;-3276.70;99.90;;;;;;5063106;28;20109;-67
2023/02/15 06:35:27;;;;;;;51.92;19.38;;;-3276.70;99.90;;;;;;5065837;28;20032;-69
2023/02/15 06:37:52;;;;;;;74.25;20.40;;;-3276.70;99.90;;;;;;5067029;28;20044;-66
2023/02/15 06:40:18;;;;;;;88.95;21.23;;;-3276.60;99.90;;;;;;5062965;28;20029;-65
2023/02/15 06:42:44;;;;;;;78.03;19.48;;;-3276.60;99.90;;;;;;5061964;28;20939;-66
2023/02/15 06:45:11;;;;;;;102.10;20.45;;;-3276.60;99.90;;;;;;5063340;28;20047;-66
2023/02/15 06:47:37;;;;;;;68.00;20.83;;;-3276.60;99.90;;;;;;5059854;28;20038;-66
2023/02/15 06:50:04;;;;;;;105.85;22.13;;;-3276.60;99.90;;;;;;5060811;28;20040;-66
2023/02/15 06:52:30;;;;;;;108.25;21.60;;;-3276.60;99.90;;;;;;5067558;28;20484;-67
2023/02/15 06:54:56;;;;;;;57.97;19.98;;;-3276.60;99.90;;;;;;5067004;28;20123;-67
2023/02/15 06:57:21;;;;;;;88.18;20.92;;;-3276.70;99.90;;;;;;5060470;28;20903;-68
2023/02/15 06:59:47;;;;;;;59.25;21.25;;;-3276.70;99.90;;;;;;5063194;28;20069;-67
2023/02/15 07:02:13;;;;;;;76.05;19.85;;;-3276.70;99.90;;;;;;5057947;28;20056;-67
2023/02/15 07:04:38;;;;;;;156.13;23.55;;;-3276.70;99.90;;;;;;5065822;28;20040;-66
2023/02/15 07:07:07;;;;;;;114.05;21.15;;;-3276.60;99.90;;;;;;5067308;28;20032;-67
2023/02/15 07:09:32;;;;;;;95.40;21.08;;;-3276.60;99.90;;;;;;5066944;28;20028;-67
2023/02/15 07:14:42;;;;;;;79.07;21.35;;;-3276.70;99.90;;;;;;5060245;28;20028;-67
2023/02/15 07:17:07;;;;;;;58.03;20.13;;;-3276.70;99.90;;;;;;5069627;28;20033;-67
2023/02/15 07:19:33;;;;;;;79.40;20.02;;;-3276.70;99.90;;;;;;5061332;28;20444;-67
2023/02/15 07:21:58;;;;;;;77.68;20.67;;;0.00;99.90;;;;;;5062602;28;20055;-66
2023/02/15 07:24:24;;;;;;;59.38;19.00;;;0.00;99.90;;;;;;5065158;28;20104;-68
2023/02/15 07:26:49;;;;;;;59.30;21.15;;;0.00;99.90;;;;;;5063570;28;20384;-66
2023/02/15 07:29:15;;;;;;;68.30;21.92;;;0.00;99.90;;;;;;5064052;28;20052;-67
2023/02/15 07:31:43;;;;;;;63.53;20.50;;;0.00;99.90;;;;;;5065999;28;20033;-67
2023/02/15 07:34:08;;;;;;;92.43;22.27;;;0.00;99.90;;;;;;5061393;28;20021;-66
2023/02/15 07:36:34;;;;;;;93.50;22.45;;;0.00;99.90;;;;;;5061595;28;20495;-68
2023/02/15 07:38:59;;;;;;;58.60;20.33;;;0.00;99.90;;;;;;5061122;28;20024;-68
2023/02/15 07:41:25;;;;;;;52.72;20.10;;;0.00;99.90;;;;;;5058504;28;20451;-66
2023/02/15 07:43:50;;;;;;;65.20;19.77;;;-3276.70;99.90;;;;;;5067209;28;20032;-75
2023/02/15 07:46:16;;;;;;;47.15;18.85;;;0.00;99.90;;;;;;5059690;28;20025;-74
2023/02/15 07:48:43;;;;;;;56.45;20.25;;;0.00;99.90;;;;;;5064760;28;20064;-75
2023/02/15 07:51:10;;;;;;;44.30;19.15;;;0.00;99.90;;;;;;5063526;28;20369;-75
2023/02/15 07:53:37;;;;;;;44.60;19.10;;;0.00;99.90;;;;;;5057866;28;20046;-75
2023/02/15 07:56:06;;;;;;;52.15;20.63;;;0.00;99.80;;;;;;5057570;28;20037;-75
2023/02/15 07:58:50;;;;;;;42.75;21.63;;;0.00;99.90;;;;;;5051264;28;20129;-75
2023/02/15 08:01:16;;;;;;;43.10;18.88;;;0.00;99.90;;;;;;5063386;28;20032;-75
2023/02/15 08:03:42;;;;;;;54.40;21.27;;;0.00;99.90;;;;;;5063103;28;20093;-75
2023/02/15 08:06:07;;;;;;;45.60;19.90;;;0.10;99.90;;;;;;5067254;28;20032;-74
2023/02/15 08:08:35;;;;;;;35.33;19.60;;;0.20;99.90;;;;;;5065620;28;20028;-74
2023/02/15 08:11:33;;;;;;;43.83;19.63;;;0.30;99.90;;;;;;5069978;28;20032;-74
2023/02/15 08:14:00;;;;;;;40.08;18.70;;;0.40;99.90;;;;;;5070016;28;20112;-74
2023/02/15 08:16:35;;;;;;;37.72;19.27;;;0.40;99.90;;;;;;5072457;28;20025;-74
2023/02/15 08:19:07;;;;;;;39.15;19.52;;;0.40;99.90;;;;;;5073343;28;20036;-74
2023/02/15 08:21:33;;;;;;;39.05;19.75;;;0.40;99.90;;;;;;5072194;28;20038;-75
2023/02/15 08:23:59;;;;;;;44.10;20.77;;;0.50;99.90;;;;;;5072881;28;20036;-75
2023/02/15 08:26:26;;;;;;;38.05;18.55;;;0.60;99.90;;;;;;5070350;28;20033;-75
2023/02/15 08:28:52;;;;;;;40.80;19.42;;;0.60;99.90;;;;;;5067840;28;20052;-75
2023/02/15 08:31:18;;;;;;;41.05;19.25;;;0.60;99.90;;;;;;5070848;28;20055;-74
2023/02/15 08:33:44;;;;;;;36.80;19.45;;;0.60;99.90;;;;;;5069172;28;20468;-75
2023/02/15 08:36:16;;;;;;;37.10;19.23;;;0.80;99.90;;;;;;5072461;28;20448;-74
2023/02/15 08:38:42;;;;;;;37.88;19.85;;;0.80;99.90;;;;;;5071080;28;20055;-75
2023/02/15 08:41:20;;;;;;;39.63;21.13;;;0.80;99.90;;;;;;5071455;28;20484;-75
2023/02/15 08:43:48;;;;;;;42.67;21.17;;;0.90;99.80;;;;;;5069329;28;20085;-75
2023/02/15 08:46:16;;;;;;;36.65;20.13;;;0.90;99.80;;;;;;5071278;28;20392;-75
2023/02/15 08:48:42;;;;;;;43.85;21.42;;;1.00;99.80;;;;;;5073887;28;20029;-75
2023/02/15 08:51:14;;;;;;;46.25;22.02;;;1.00;99.70;;;;;;5066129;28;20097;-75
2023/02/15 08:53:41;;;;;;;44.00;21.00;;;0.90;99.50;;;;;;5071060;28;20039;-74
2023/02/15 08:56:08;;;;;;;44.35;22.02;;;1.00;99.50;;;;;;5064326;28;20102;-75
2023/02/15 08:58:34;;;;;;;40.42;20.77;;;1.30;99.90;;;;;;5065900;28;20032;-74
2023/02/15 09:01:01;;;;;;;44.85;22.77;;;1.40;99.60;;;;;;5070520;28;20439;-75
2023/02/15 09:03:28;;;;;;;41.30;21.45;;;1.60;99.60;;;;;;5073165;28;20389;-75
2023/02/15 09:05:58;;;;;;;45.97;21.90;;;1.60;99.40;;;;;;5073836;28;20039;-75
2023/02/15 09:08:24;;;;;;;48.58;23.77;;;1.90;99.70;;;;;;5067093;28;20044;-75
2023/02/15 09:10:49;;;;;;;46.72;23.73;;;2.30;99.90;;;;;;5066499;28;20040;-75
2023/02/15 09:13:14;;;;;;;49.55;24.13;;;2.50;99.70;;;;;;5065498;28;20052;-75
2023/02/15 09:15:40;;;;;;;45.38;24.45;;;2.60;99.50;;;;;;5065931;28;20419;-75
2023/02/15 09:18:05;;;;;;;47.90;26.52;;;2.70;99.30;;;;;;5071548;28;20043;-75
2023/02/15 09:20:34;;;;;;;50.85;26.27;;;2.60;98.70;;;;;;5072819;28;20037;-75
2023/02/15 09:23:00;;;;;;;44.42;24.88;;;2.70;98.70;;;;;;5071316;28;20048;-75
2023/02/15 09:25:26;;;;;;;43.17;25.08;;;2.80;98.40;;;;;;5067294;28;20381;-75
2023/02/15 09:27:52;;;;;;;48.90;26.45;;;2.90;98.10;;;;;;5061915;28;20054;-75
2023/02/15 09:30:17;;;;;;;43.67;24.70;;;3.30;98.30;;;;;;5064366;28;20137;-75
2023/02/15 09:32:43;;;;;;;37.45;24.05;;;3.20;97.40;;;;;;5065515;28;20036;-75
2023/02/15 09:35:08;;;;;;;38.05;22.65;;;3.20;97.10;;;;;;5070245;28;20036;-75
2023/02/15 09:37:34;;;;;;;37.47;22.67;;;3.40;97.30;;;;;;5063599;28;20044;-75
2023/02/15 09:40:00;;;;;;;34.58;21.85;;;3.70;97.50;;;;;;5064515;28;20039;-75
2023/02/15 09:43:07;;;;;;;33.22;21.27;;;3.90;97.00;;;;;;5065807;28;20062;-75
2023/02/15 09:45:57;;;;;;;32.13;21.05;;;4.10;96.70;;;;;;5070501;28;20437;-75
2023/02/15 09:48:35;;;;;;;32.17;20.83;;;4.30;96.70;;;;;;5070806;28;20021;-75
2023/02/15 09:51:50;;;;;;;30.42;19.70;;;4.50;95.20;;;;;;5071902;28;20941;-75
2023/02/15 09:54:38;;;;;;;26.80;17.10;;;4.60;95.50;;;;;;5025159;28;20032;-75
2023/02/15 09:57:15;;;;;;;23.13;16.52;;;4.40;93.70;;;;;;5060312;28;20041;-75
2023/02/15 10:00:02;;;;;;;22.75;15.98;;;4.70;94.60;;;;;;5069002;28;20051;-72
2023/02/15 10:02:40;;;;;;;21.85;14.65;;;4.70;94.00;;;;;;5071957;28;20469;-73
2023/02/15 10:05:31;;;;;;;21.10;16.83;;;4.80;94.00;;;;;;5076000;28;20027;-81
2023/02/15 10:08:21;;;;;;;22.33;15.65;;;5.20;94.40;;;;;;5070301;28;20028;-75
2023/02/15 10:11:38;;;;;;;20.73;14.15;;;5.40;93.30;;;;;;5067360;28;20380;-75
2023/02/15 10:14:05;;;;;;;32.03;20.02;;;5.50;93.10;;;;;;5063296;28;20523;-75
2023/02/15 10:16:45;;;;;;;30.40;19.98;;;5.50;92.80;;;;;;5068763;28;20074;-76
2023/02/15 10:19:31;;;;;;;22.67;16.40;;;5.40;92.70;;;;;;5064401;28;20032;-75
2023/02/15 10:22:23;;;;;;;22.65;14.73;;;5.30;92.90;;;;;;5029269;28;20052;-76
2023/02/15 10:25:25;;;;;;;20.80;14.48;;;5.50;93.00;;;;;;5070575;28;20099;-76
2023/02/15 10:27:51;;;;;;;21.85;15.00;;;5.60;92.70;;;;;;5065494;28;20044;-76
2023/02/15 10:30:38;;;;;;;23.58;14.98;;;5.70;93.20;;;;;;5072011;28;20461;-76
2023/02/15 10:33:14;;;;;;;21.23;14.85;;;5.90;92.60;;;;;;5059791;28;20036;-76
2023/02/15 10:36:05;;;;;;;18.45;13.77;;;6.00;91.90;;;;;;5071101;28;20115;-76
2023/02/15 10:38:58;;;;;;;21.05;14.40;;;6.10;92.00;;;;;;5068625;28;20451;-76
2023/02/15 10:41:48;;;;;;;16.88;12.25;;;6.10;91.20;;;;;;5061470;28;20035;-76
2023/02/15 10:44:43;;;;;;;17.95;13.18;;;6.00;90.90;;;;;;5064698;28;20151;-76
2023/02/15 10:47:18;;;;;;;20.38;13.80;;;6.20;91.20;;;;;;5069455;28;20028;-76
2023/02/15 10:50:16;;;;;;;18.90;13.80;;;6.20;91.40;;;;;;5070464;28;20062;-76
2023/02/15 10:53:02;;;;;;;22.05;13.75;;;6.50;91.60;;;;;;5069345;28;20032;-76
2023/02/15 10:55:49;;;;;;;20.30;13.98;;;6.50;90.80;;;;;;5070496;28;20107;-76
2023/02/15 10:58:59;;;;;;;21.75;14.82;;;6.80;90.40;;;;;;5052193;28;20029;-76
2023/02/15 11:01:48;;;;;;;21.17;14.13;;;7.10;90.00;;;;;;5069972;28;20028;-76
2023/02/15 11:04:16;;;;;;;19.98;14.05;;;7.00;89.10;;;;;;5069301;28;20054;-76
2023/02/15 11:06:51;;;;;;;23.17;14.10;;;7.00;89.00;;;;;;5069426;28;20035;-76
2023/02/15 11:09:20;;;;;;;19.42;13.27;;;7.30;89.30;;;;;;5066756;28;20032;-76
2023/02/15 11:11:50;;;;;;;17.88;13.30;;;7.40;88.50;;;;;;5066178;28;20115;-76
2023/02/15 11:14:28;;;;;;;18.83;13.63;;;7.40;88.40;;;;;;5062646;28;20029;-75
2023/02/15 11:17:02;;;;;;;18.75;12.77;;;7.40;88.10;;;;;;5061705;28;20752;-76
2023/02/15 11:19:35;;;;;;;22.55;13.48;;;7.60;87.70;;;;;;5068156;28;20035;-75
2023/02/15 11:22:06;;;;;;;21.75;12.60;;;7.70;87.60;;;;;;5069586;28;20479;-76
2023/02/15 11:24:38;;;;;;;18.42;13.07;;;7.80;87.50;;;;;;5064948;28;20112;-74
2023/02/15 11:27:18;;;;;;;17.40;12.38;;;8.00;86.70;;;;;;5067765;28;20036;-74
2023/02/15 11:30:02;;;;;;;18.50;12.60;;;8.10;85.70;;;;;;5062033;28;20072;-74
2023/02/15 11:32:31;;;;;;;17.35;12.35;;;8.20;85.00;;;;;;5062636;28;20052;-74
2023/02/15 11:35:10;;;;;;;16.13;12.00;;;8.40;85.20;;;;;;5064573;28;20032;-74
2023/02/15 11:37:56;;;;;;;19.25;12.63;;;8.60;85.20;;;;;;5069669;28;20657;-74
2023/02/15 11:40:47;;;;;;;17.75;12.52;;;8.90;84.40;;;;;;5068004;28;20025;-74
2023/02/15 11:43:18;;;;;;;19.08;13.32;;;9.00;83.80;;;;;;5061556;28;20570;-74
2023/02/15 11:45:45;;;;;;;;;;;9.10;83.40;;;;;;5075062;28;20162;-74
2023/02/15 11:48:13;;;;;;;19.42;12.40;;;9.20;83.60;;;;;;5074394;28;19915;-74
2023/02/15 11:50:39;;;;;;;17.40;12.75;;;9.30;81.90;;;;;;5071203;28;20123;-74
2023/02/15 11:53:11;;;;;;;17.95;12.52;;;9.30;81.80;;;;;;5070929;28;20127;-74
2023/02/15 11:55:37;;;;;;;16.73;12.02;;;9.60;82.20;;;;;;5068675;28;20123;-74
2023/02/15 11:58:14;;;;;;;16.35;11.95;;;9.80;82.30;;;;;;5069114;28;20146;-74
2023/02/15 12:01:09;;;;;;;18.02;12.38;;;9.80;80.40;;;;;;5071950;28;20059;-74
2023/02/15 12:03:53;;;;;;;16.60;12.15;;;9.90;80.60;;;;;;5067811;28;20121;-74
2023/02/15 12:07:07;;;;;;;18.60;13.20;;;10.00;80.60;;;;;;5074296;28;20028;-74
2023/02/15 12:09:56;;;;;;;18.35;13.45;;;10.10;80.00;;;;;;5016450;28;20329;-74
2023/02/15 12:12:23;;;;;;;17.88;13.25;;;10.60;79.70;;;;;;5064429;28;20024;-74
2023/02/15 12:15:07;;;;;;;17.70;13.75;;;10.40;78.10;;;;;;5061898;28;20047;-74
2023/02/15 12:17:54;;;;;;;17.48;13.15;;;10.60;78.80;;;;;;5069069;28;20033;-74
2023/02/15 12:20:19;;;;;;;20.63;12.32;;;10.70;77.40;;;;;;5062134;28;20385;-74
2023/02/15 12:23:12;;;;;;;17.15;13.32;;;10.90;77.60;;;;;;5068627;28;20049;-74
2023/02/15 12:25:59;;;;;;;21.52;14.85;;;11.30;78.10;;;;;;5073648;28;20135;-74
2023/02/15 12:28:37;;;;;;;18.48;13.70;;;11.60;75.40;;;;;;5055377;28;20420;-74
2023/02/15 12:31:10;;;;;;;18.23;13.63;;;11.90;75.50;;;;;;5074006;28;20067;-74
2023/02/15 12:33:43;;;;;;;21.67;13.80;;;12.20;75.10;;;;;;5068720;28;20107;-75
2023/02/15 12:36:44;;;;;;;18.08;13.38;;;12.10;72.60;;;;;;5069883;28;20028;-75
2023/02/15 12:39:12;;;;;;;18.27;12.88;;;11.90;74.50;;;;;;5068338;28;20045;-74
2023/02/15 12:41:44;;;;;;;19.13;14.30;;;11.70;74.80;;;;;;5069126;28;20064;-74
2023/02/15 12:44:19;;;;;;;20.15;14.90;;;11.80;76.00;;;;;;5069029;28;20481;-74
2023/02/15 12:47:01;;;;;;;21.50;15.52;;;12.00;75.10;;;;;;5073836;28;20025;-74
2023/02/15 12:49:32;;;;;;;18.13;14.15;;;12.70;73.70;;;;;;5061149;28;20035;-74
2023/02/15 12:51:59;;;;;;;;;;;12.30;72.80;;;;;;5070762;28;20029;-74
2023/02/15 12:54:29;;;;;;;21.35;14.82;;;12.40;71.40;;;;;;5060983;28;20277;-74
2023/02/15 12:56:57;;;;;;;20.45;13.45;;;12.60;71.70;;;;;;5065954;28;20129;-74
2023/02/15 12:59:22;;;;;;;23.63;15.48;;;12.60;70.90;;;;;;5062459;28;20399;-77
2023/02/15 13:01:48;;;;;;;18.08;14.02;;;12.90;70.80;;;;;;5069973;28;20032;-77
2023/02/15 13:04:27;;;;;;;18.73;13.63;;;13.00;69.80;;;;;;5070198;28;20040;-75
2023/02/15 13:06:57;;;;;;;22.10;15.98;;;13.00;69.80;;;;;;5072609;28;20044;-76
2023/02/15 13:09:32;;;;;;;20.25;15.30;;;13.00;70.30;;;;;;5052637;28;20552;-76
2023/02/15 13:12:30;;;;;;;21.77;15.15;;;13.00;70.20;;;;;;5068363;28;20052;-75
2023/02/15 13:14:56;;;;;;;19.67;14.25;;;13.00;70.90;;;;;;5060302;28;20113;-75
2023/02/15 13:17:29;;;;;;;19.92;14.57;;;12.60;69.60;;;;;;5061633;28;20033;-76
2023/02/15 13:20:13;;;;;;;17.35;13.50;;;12.90;70.60;;;;;;5059345;28;20028;-76
2023/02/15 13:22:43;;;;;;;20.10;13.40;;;13.30;69.10;;;;;;5056550;28;20044;-75